sensor_id;sensor_type;location;lat;lon;timestamp;pressure;altitude;pressure_sealevel;temperature;humidity
55077;BME280;40971;44.702;11.030;2022-10-22T00:00:21;101488.47;;;16.83;100.00
55077;BME280;40971;44.702;11.030;2022-10-22T00:02:47;101433.84;;;16.59;100.00
55077;BME280;40971;44.702;11.030;2022-10-22T00:05:12;101489.63;;;16.92;100.00
55077;BME280;40971;44.702;11.030;2022-10-22T00:07:38;101475.28;;;16.83;100.00
55077;BME280;40971;44.702;11.030;2022-10-22T00:10:06;101458.72;;;16.81;100.00
55077;BME280;40971;44.702;11.030;2022-10-22T00:12:32;101464.81;;;16.82;100.00
55077;BME280;40971;44.702;11.030;2022-10-22T00:14:58;101454.16;;;16.83;100.00
55077;BME280;40971;44.702;11.030;2022-10-22T00:17:23;101395.97;;;16.60;100.00
55077;BME280;40971;44.702;11.030;2022-10-22T00:19:49;101398.44;;;16.88;100.00
55077;BME280;40971;44.702;11.030;2022-10-22T00:22:14;101365.72;;;16.91;100.00
55077;BME280;40971;44.702;11.030;2022-10-22T00:24:40;101401.47;;;16.95;100.00
55077;BME280;40971;44.702;11.030;2022-10-22T00:27:06;101462.72;;;17.00;100.00
55077;BME280;40971;44.702;11.030;2022-10-22T00:29:32;101454.25;;;16.95;100.00
55077;BME280;40971;44.702;11.030;2022-10-22T00:31:59;101466.41;;;16.97;100.00
55077;BME280;40971;44.702;11.030;2022-10-22T00:34:26;101455.22;;;17.06;100.00
55077;BME280;40971;44.702;11.030;2022-10-22T00:36:51;101436.00;;;17.04;100.00
55077;BME280;40971;44.702;11.030;2022-10-22T00:39:19;101436.84;;;17.05;100.00
55077;BME280;40971;44.702;11.030;2022-10-22T00:41:46;101418.38;;;16.79;100.00
55077;BME280;40971;44.702;11.030;2022-10-22T00:47:15;101417.09;;;16.47;100.00
55077;BME280;40971;44.702;11.030;2022-10-22T00:49:44;101404.38;;;16.27;100.00
55077;BME280;40971;44.702;11.030;2022-10-22T00:52:10;101345.84;;;15.96;100.00
55077;BME280;40971;44.702;11.030;2022-10-22T00:54:37;101421.81;;;16.54;100.00
55077;BME280;40971;44.702;11.030;2022-10-22T00:57:04;101428.47;;;16.60;100.00
55077;BME280;40971;44.702;11.030;2022-10-22T00:59:30;101410.66;;;16.64;100.00
55077;BME280;40971;44.702;11.030;2022-10-22T01:01:56;101423.34;;;16.71;100.00
55077;BME280;40971;44.702;11.030;2022-10-22T01:04:21;101409.09;;;16.87;100.00
55077;BME280;40971;44.702;11.030;2022-10-22T01:06:47;101402.31;;;17.08;100.00
55077;BME280;40971;44.702;11.030;2022-10-22T01:09:20;101420.53;;;17.36;100.00
55077;BME280;40971;44.702;11.030;2022-10-22T01:12:14;101422.81;;;17.54;100.00
55077;BME280;40971;44.702;11.030;2022-10-22T01:14:51;101408.41;;;17.70;100.00
55077;BME280;40971;44.702;11.030;2022-10-22T01:27:27;101362.59;;;18.18;97.47
55077;BME280;40971;44.702;11.030;2022-10-22T01:29:29;101352.28;;;18.26;96.87
55077;BME280;40971;44.702;11.030;2022-10-22T01:32:01;101353.00;;;18.28;97.57
55077;BME280;40971;44.702;11.030;2022-10-22T01:34:30;101342.31;;;18.18;98.65
55077;BME280;40971;44.702;11.030;2022-10-22T01:36:56;101342.78;;;18.23;99.05
55077;BME280;40971;44.702;11.030;2022-10-22T01:39:24;101286.22;;;17.91;100.00
55077;BME280;40971;44.702;11.030;2022-10-22T01:41:53;101340.47;;;18.08;100.00
55077;BME280;40971;44.702;11.030;2022-10-22T01:44:31;101330.47;;;18.00;100.00
55077;BME280;40971;44.702;11.030;2022-10-22T01:55:35;101282.72;;;17.55;100.00
55077;BME280;40971;44.702;11.030;2022-10-22T02:00:47;101340.41;;;17.96;100.00
55077;BME280;40971;44.702;11.030;2022-10-22T02:03:25;101310.59;;;17.83;99.49
55077;BME280;40971;44.702;11.030;2022-10-22T02:06:01;101327.84;;;18.00;99.76
55077;BME280;40971;44.702;11.030;2022-10-22T02:08:31;101301.00;;;17.93;99.89
55077;BME280;40971;44.702;11.030;2022-10-22T02:10:59;101285.03;;;17.95;99.75
55077;BME280;40971;44.702;11.030;2022-10-22T02:13:38;101297.91;;;17.99;99.48
55077;BME280;40971;44.702;11.030;2022-10-22T02:16:07;101306.81;;;17.98;99.42
55077;BME280;40971;44.702;11.030;2022-10-22T02:18:36;101325.81;;;18.03;98.65
55077;BME280;40971;44.702;11.030;2022-10-22T02:21:03;101318.75;;;18.15;97.05
55077;BME280;40971;44.702;11.030;2022-10-22T02:23:29;101271.75;;;18.19;95.98
55077;BME280;40971;44.702;11.030;2022-10-22T02:26:05;101262.88;;;18.42;94.30
55077;BME280;40971;44.702;11.030;2022-10-22T02:28:36;101280.53;;;18.30;95.21
55077;BME280;40971;44.702;11.030;2022-10-22T02:31:12;101298.47;;;18.38;94.50
55077;BME280;40971;44.702;11.030;2022-10-22T02:33:43;101299.91;;;18.53;93.27
55077;BME280;40971;44.702;11.030;2022-10-22T02:36:10;101294.25;;;18.58;92.73
55077;BME280;40971;44.702;11.030;2022-10-22T02:38:38;101312.06;;;18.56;92.72
55077;BME280;40971;44.702;11.030;2022-10-22T02:41:05;101319.50;;;18.62;92.36
55077;BME280;40971;44.702;11.030;2022-10-22T02:43:39;101299.09;;;18.64;90.55
55077;BME280;40971;44.702;11.030;2022-10-22T02:46:06;101315.56;;;18.79;90.58
55077;BME280;40971;44.702;11.030;2022-10-22T02:48:31;101326.88;;;18.81;90.17
55077;BME280;40971;44.702;11.030;2022-10-22T02:50:56;101306.91;;;18.77;89.83
55077;BME280;40971;44.702;11.030;2022-10-22T02:53:22;101311.94;;;18.80;90.56
55077;BME280;40971;44.702;11.030;2022-10-22T02:55:47;101299.56;;;18.80;89.88
55077;BME280;40971;44.702;11.030;2022-10-22T02:58:13;101310.91;;;18.82;90.04
55077;BME280;40971;44.702;11.030;2022-10-22T03:00:38;101312.44;;;18.85;90.00
55077;BME280;40971;44.702;11.030;2022-10-22T03:03:04;101314.97;;;18.86;90.02
55077;BME280;40971;44.702;11.030;2022-10-22T03:05:29;101304.84;;;18.80;90.37
55077;BME280;40971;44.702;11.030;2022-10-22T03:07:54;101250.13;;;18.58;89.88
55077;BME280;40971;44.702;11.030;2022-10-22T03:10:20;101269.25;;;18.84;89.65
55077;BME280;40971;44.702;11.030;2022-10-22T03:12:45;101286.00;;;18.74;90.79
55077;BME280;40971;44.702;11.030;2022-10-22T03:15:11;101331.09;;;18.72;91.07
55077;BME280;40971;44.702;11.030;2022-10-22T03:17:36;101229.44;;;18.30;89.75
55077;BME280;40971;44.702;11.030;2022-10-22T03:20:02;101252.06;;;18.56;89.55
55077;BME280;40971;44.702;11.030;2022-10-22T03:22:29;101270.94;;;18.74;90.15
55077;BME280;40971;44.702;11.030;2022-10-22T03:24:59;101240.03;;;18.63;89.55
55077;BME280;40971;44.702;11.030;2022-10-22T03:27:28;101274.91;;;18.80;89.29
55077;BME280;40971;44.702;11.030;2022-10-22T03:29:54;101273.59;;;18.74;89.89
55077;BME280;40971;44.702;11.030;2022-10-22T03:32:20;101241.25;;;18.48;90.94
55077;BME280;40971;44.702;11.030;2022-10-22T03:34:46;101264.69;;;18.64;90.48
55077;BME280;40971;44.702;11.030;2022-10-22T03:37:12;101271.31;;;18.70;90.65
55077;BME280;40971;44.702;11.030;2022-10-22T03:39:38;101260.88;;;18.68;90.93
55077;BME280;40971;44.702;11.030;2022-10-22T03:42:05;101260.75;;;18.70;90.42
55077;BME280;40971;44.702;11.030;2022-10-22T03:44:32;101285.63;;;18.78;90.59
55077;BME280;40971;44.702;11.030;2022-10-22T03:46:59;101223.56;;;18.60;89.94
55077;BME280;40971;44.702;11.030;2022-10-22T03:49:24;101267.69;;;18.93;89.16
55077;BME280;40971;44.702;11.030;2022-10-22T03:51:50;101285.72;;;18.99;89.16
55077;BME280;40971;44.702;11.030;2022-10-22T03:54:15;101245.91;;;18.78;88.64
55077;BME280;40971;44.702;11.030;2022-10-22T03:56:41;101286.19;;;19.04;88.63
55077;BME280;40971;44.702;11.030;2022-10-22T03:59:08;101288.84;;;19.04;88.76
55077;BME280;40971;44.702;11.030;2022-10-22T04:01:34;101256.22;;;19.04;88.99
55077;BME280;40971;44.702;11.030;2022-10-22T04:03:59;101269.47;;;19.04;89.59
55077;BME280;40971;44.702;11.030;2022-10-22T04:06:25;101271.88;;;18.96;90.38
55077;BME280;40971;44.702;11.030;2022-10-22T04:08:51;101219.84;;;18.74;89.51
55077;BME280;40971;44.702;11.030;2022-10-22T04:11:16;101241.34;;;18.80;89.49
55077;BME280;40971;44.702;11.030;2022-10-22T04:13:42;101225.22;;;18.61;90.24
55077;BME280;40971;44.702;11.030;2022-10-22T04:16:17;101274.78;;;18.92;90.38
55077;BME280;40971;44.702;11.030;2022-10-22T04:19:00;101186.91;;;18.44;90.46
55077;BME280;40971;44.702;11.030;2022-10-22T04:21:25;101223.81;;;18.68;90.49
55077;BME280;40971;44.702;11.030;2022-10-22T04:23:52;101218.25;;;18.60;91.15
55077;BME280;40971;44.702;11.030;2022-10-22T04:26:18;101256.50;;;18.78;91.39
55077;BME280;40971;44.702;11.030;2022-10-22T04:28:45;101233.19;;;18.72;90.34
55077;BME280;40971;44.702;11.030;2022-10-22T04:31:13;101228.50;;;18.76;90.39
55077;BME280;40971;44.702;11.030;2022-10-22T04:33:39;101255.66;;;18.89;89.65
55077;BME280;40971;44.702;11.030;2022-10-22T04:36:11;101266.44;;;18.97;89.33
55077;BME280;40971;44.702;11.030;2022-10-22T04:38:37;101251.72;;;18.83;89.47
55077;BME280;40971;44.702;11.030;2022-10-22T04:41:11;101276.59;;;18.92;89.97
55077;BME280;40971;44.702;11.030;2022-10-22T04:43:37;101269.47;;;18.92;89.98
55077;BME280;40971;44.702;11.030;2022-10-22T04:46:03;101266.59;;;18.96;89.08
55077;BME280;40971;44.702;11.030;2022-10-22T04:48:29;101261.06;;;18.99;88.98
55077;BME280;40971;44.702;11.030;2022-10-22T04:51:02;101234.09;;;18.93;88.63
55077;BME280;40971;44.702;11.030;2022-10-22T04:53:28;101237.84;;;18.80;89.69
55077;BME280;40971;44.702;11.030;2022-10-22T04:55:53;101249.06;;;18.72;90.88
55077;BME280;40971;44.702;11.030;2022-10-22T04:58:20;101245.47;;;18.73;90.75
55077;BME280;40971;44.702;11.030;2022-10-22T05:00:45;101221.88;;;18.59;90.73
55077;BME280;40971;44.702;11.030;2022-10-22T05:03:11;101253.19;;;18.65;91.08
55077;BME280;40971;44.702;11.030;2022-10-22T05:05:36;101201.22;;;18.42;90.46
55077;BME280;40971;44.702;11.030;2022-10-22T05:08:02;101227.16;;;18.59;90.52
55077;BME280;40971;44.702;11.030;2022-10-22T05:10:27;101227.91;;;18.50;91.22
55077;BME280;40971;44.702;11.030;2022-10-22T05:12:52;101234.50;;;18.44;91.82
55077;BME280;40971;44.702;11.030;2022-10-22T05:15:18;101222.38;;;18.42;92.03
55077;BME280;40971;44.702;11.030;2022-10-22T05:17:43;101165.16;;;18.07;92.20
55077;BME280;40971;44.702;11.030;2022-10-22T05:20:09;101225.13;;;18.29;93.55
55077;BME280;40971;44.702;11.030;2022-10-22T05:22:34;101235.00;;;18.16;94.38
55077;BME280;40971;44.702;11.030;2022-10-22T05:25:00;101228.94;;;17.91;95.10
55077;BME280;40971;44.702;11.030;2022-10-22T05:27:25;101230.97;;;17.88;96.00
55077;BME280;40971;44.702;11.030;2022-10-22T05:29:51;101226.66;;;17.87;95.73
55077;BME280;40971;44.702;11.030;2022-10-22T05:32:17;101208.53;;;17.93;94.17
55077;BME280;40971;44.702;11.030;2022-10-22T05:34:42;101210.72;;;18.22;92.21
55077;BME280;40971;44.702;11.030;2022-10-22T05:37:08;101225.13;;;18.74;90.05
55077;BME280;40971;44.702;11.030;2022-10-22T05:39:33;101206.47;;;18.75;89.41
55077;BME280;40971;44.702;11.030;2022-10-22T05:42:01;101206.47;;;18.86;89.31
55077;BME280;40971;44.702;11.030;2022-10-22T05:44:27;101186.47;;;18.93;87.56
55077;BME280;40971;44.702;11.030;2022-10-22T05:46:53;101179.03;;;19.19;85.69
55077;BME280;40971;44.702;11.030;2022-10-22T05:49:18;101165.72;;;19.31;84.64
55077;BME280;40971;44.702;11.030;2022-10-22T05:51:44;101192.75;;;19.45;84.92
55077;BME280;40971;44.702;11.030;2022-10-22T05:54:28;101207.25;;;19.62;84.29
55077;BME280;40971;44.702;11.030;2022-10-22T05:56:53;101163.81;;;19.33;84.07
55077;BME280;40971;44.702;11.030;2022-10-22T05:59:19;101185.88;;;19.54;83.28
55077;BME280;40971;44.702;11.030;2022-10-22T06:01:45;101208.69;;;19.87;82.48
55077;BME280;40971;44.702;11.030;2022-10-22T06:04:11;101217.41;;;19.78;83.79
55077;BME280;40971;44.702;11.030;2022-10-22T06:06:45;101202.78;;;19.63;83.56
55077;BME280;40971;44.702;11.030;2022-10-22T06:09:33;101144.53;;;19.31;83.03
55077;BME280;40971;44.702;11.030;2022-10-22T06:12:00;101163.59;;;19.57;83.38
55077;BME280;40971;44.702;11.030;2022-10-22T06:14:26;101198.91;;;19.88;81.65
55077;BME280;40971;44.702;11.030;2022-10-22T06:16:51;101221.97;;;20.18;81.08
55077;BME280;40971;44.702;11.030;2022-10-22T06:19:19;101228.97;;;20.28;79.60
55077;BME280;40971;44.702;11.030;2022-10-22T06:21:45;101197.25;;;20.17;79.37
55077;BME280;40971;44.702;11.030;2022-10-22T06:24:11;101234.84;;;20.32;79.40
55077;BME280;40971;44.702;11.030;2022-10-22T06:26:37;101219.38;;;20.06;80.64
55077;BME280;40971;44.702;11.030;2022-10-22T06:29:03;101241.38;;;19.97;81.83
55077;BME280;40971;44.702;11.030;2022-10-22T06:31:29;101200.63;;;19.68;82.50
55077;BME280;40971;44.702;11.030;2022-10-22T06:34:09;101207.59;;;19.69;83.04
55077;BME280;40971;44.702;11.030;2022-10-22T06:36:35;101159.97;;;19.46;82.68
55077;BME280;40971;44.702;11.030;2022-10-22T06:39:02;101232.78;;;20.05;81.65
55077;BME280;40971;44.702;11.030;2022-10-22T06:41:27;101171.47;;;19.98;79.41
55077;BME280;40971;44.702;11.030;2022-10-22T06:43:53;101251.75;;;20.61;78.42
55077;BME280;40971;44.702;11.030;2022-10-22T06:46:21;101207.56;;;20.41;78.40
55077;BME280;40971;44.702;11.030;2022-10-22T06:48:51;101251.94;;;20.69;78.31
55077;BME280;40971;44.702;11.030;2022-10-22T06:51:18;101273.81;;;21.02;76.54
55077;BME280;40971;44.702;11.030;2022-10-22T06:53:45;101274.09;;;21.09;76.13
55077;BME280;40971;44.702;11.030;2022-10-22T06:56:13;101275.00;;;21.28;75.33
55077;BME280;40971;44.702;11.030;2022-10-22T06:58:39;101259.34;;;21.35;74.13
55077;BME280;40971;44.702;11.030;2022-10-22T07:01:10;101261.00;;;21.26;74.03
55077;BME280;40971;44.702;11.030;2022-10-22T07:03:36;101215.94;;;20.86;74.89
55077;BME280;40971;44.702;11.030;2022-10-22T07:06:04;101297.59;;;21.23;75.73
55077;BME280;40971;44.702;11.030;2022-10-22T07:08:29;101272.38;;;20.98;76.88
55077;BME280;40971;44.702;11.030;2022-10-22T07:10:55;101275.34;;;21.05;77.10
55077;BME280;40971;44.702;11.030;2022-10-22T07:13:22;101307.34;;;21.03;77.97
55077;BME280;40971;44.702;11.030;2022-10-22T07:15:52;101300.50;;;21.00;78.11
55077;BME280;40971;44.702;11.030;2022-10-22T07:18:19;101309.44;;;20.99;77.79
55077;BME280;40971;44.702;11.030;2022-10-22T07:20:46;101295.91;;;21.02;78.00
55077;BME280;40971;44.702;11.030;2022-10-22T07:23:11;101298.53;;;20.93;78.29
55077;BME280;40971;44.702;11.030;2022-10-22T07:25:37;101300.34;;;20.92;79.08
55077;BME280;40971;44.702;11.030;2022-10-22T07:28:02;101283.94;;;20.78;78.45
55077;BME280;40971;44.702;11.030;2022-10-22T07:30:28;101281.19;;;20.89;78.80
55077;BME280;40971;44.702;11.030;2022-10-22T07:32:53;101295.16;;;20.91;79.45
55077;BME280;40971;44.702;11.030;2022-10-22T07:35:19;101305.50;;;20.94;78.32
55077;BME280;40971;44.702;11.030;2022-10-22T07:37:49;101307.59;;;20.90;79.33
55077;BME280;40971;44.702;11.030;2022-10-22T07:40:23;101320.47;;;20.95;79.02
55077;BME280;40971;44.702;11.030;2022-10-22T07:42:49;101271.16;;;20.62;80.20
55077;BME280;40971;44.702;11.030;2022-10-22T07:45:15;101302.53;;;20.78;80.58
55077;BME280;40971;44.702;11.030;2022-10-22T07:47:40;101307.00;;;20.77;80.56
55077;BME280;40971;44.702;11.030;2022-10-22T07:50:06;101329.38;;;20.84;80.91
55077;BME280;40971;44.702;11.030;2022-10-22T07:52:32;101318.22;;;20.90;80.50
55077;BME280;40971;44.702;11.030;2022-10-22T07:54:58;101320.59;;;20.84;80.80
55077;BME280;40971;44.702;11.030;2022-10-22T07:57:23;101338.06;;;20.96;80.87
55077;BME280;40971;44.702;11.030;2022-10-22T07:59:49;101312.34;;;20.87;80.78
55077;BME280;40971;44.702;11.030;2022-10-22T08:02:14;101284.34;;;20.73;80.66
55077;BME280;40971;44.702;11.030;2022-10-22T08:04:40;101259.47;;;20.74;80.50
55077;BME280;40971;44.702;11.030;2022-10-22T08:07:05;101323.25;;;21.34;78.73
55077;BME280;40971;44.702;11.030;2022-10-22T08:09:31;101336.97;;;21.58;78.14
55077;BME280;40971;44.702;11.030;2022-10-22T08:11:56;101324.53;;;21.58;77.66
55077;BME280;40971;44.702;11.030;2022-10-22T08:14:22;101333.75;;;21.54;79.21
55077;BME280;40971;44.702;11.030;2022-10-22T08:16:47;101309.69;;;21.37;78.86
55077;BME280;40971;44.702;11.030;2022-10-22T08:19:13;101314.16;;;21.46;79.24
55077;BME280;40971;44.702;11.030;2022-10-22T08:21:43;101322.16;;;21.55;79.07
55077;BME280;40971;44.702;11.030;2022-10-22T08:24:10;101331.53;;;21.59;77.93
55077;BME280;40971;44.702;11.030;2022-10-22T08:26:36;101301.00;;;21.44;79.02
55077;BME280;40971;44.702;11.030;2022-10-22T08:29:01;101323.97;;;21.55;78.42
55077;BME280;40971;44.702;11.030;2022-10-22T08:31:27;101343.56;;;21.54;79.26
55077;BME280;40971;44.702;11.030;2022-10-22T08:33:52;101342.00;;;21.61;78.47
55077;BME280;40971;44.702;11.030;2022-10-22T08:36:17;101338.38;;;21.62;78.24
55077;BME280;40971;44.702;11.030;2022-10-22T08:38:43;101322.56;;;21.60;78.59
55077;BME280;40971;44.702;11.030;2022-10-22T08:41:12;101349.28;;;21.78;78.16
55077;BME280;40971;44.702;11.030;2022-10-22T08:44:00;101324.13;;;21.73;79.05
55077;BME280;40971;44.702;11.030;2022-10-22T08:49:13;101354.78;;;22.06;77.84
55077;BME280;40971;44.702;11.030;2022-10-22T08:51:42;101368.63;;;22.19;77.40
55077;BME280;40971;44.702;11.030;2022-10-22T08:59:49;101335.13;;;22.16;75.79
55077;BME280;40971;44.702;11.030;2022-10-22T09:07:44;101357.56;;;22.24;76.54
55077;BME280;40971;44.702;11.030;2022-10-22T09:10:18;101372.63;;;22.42;76.45
55077;BME280;40971;44.702;11.030;2022-10-22T09:12:47;101335.38;;;22.33;75.76
55077;BME280;40971;44.702;11.030;2022-10-22T09:15:14;101336.50;;;22.40;75.72
55077;BME280;40971;44.702;11.030;2022-10-22T09:20:38;101392.34;;;22.69;76.95
55077;BME280;40971;44.702;11.030;2022-10-22T09:23:28;101392.19;;;22.70;76.26
55077;BME280;40971;44.702;11.030;2022-10-22T09:25:57;101386.56;;;22.64;76.19
55077;BME280;40971;44.702;11.030;2022-10-22T09:28:23;101407.84;;;22.83;77.38
55077;BME280;40971;44.702;11.030;2022-10-22T09:30:49;101380.31;;;22.55;77.27
55077;BME280;40971;44.702;11.030;2022-10-22T09:33:22;101413.91;;;22.66;77.88
55077;BME280;40971;44.702;11.030;2022-10-22T09:35:57;101408.03;;;22.62;77.62
55077;BME280;40971;44.702;11.030;2022-10-22T09:38:29;101384.81;;;22.45;77.84
55077;BME280;40971;44.702;11.030;2022-10-22T09:40:56;101419.22;;;22.75;78.47
55077;BME280;40971;44.702;11.030;2022-10-22T09:43:22;101406.19;;;22.63;78.33
55077;BME280;40971;44.702;11.030;2022-10-22T09:45:55;101408.16;;;22.61;79.38
55077;BME280;40971;44.702;11.030;2022-10-22T09:48:26;101390.53;;;22.60;81.33
55077;BME280;40971;44.702;11.030;2022-10-22T09:51:03;101406.19;;;22.72;79.75
55077;BME280;40971;44.702;11.030;2022-10-22T09:53:35;101395.38;;;22.74;80.00
55077;BME280;40971;44.702;11.030;2022-10-22T09:56:12;101425.88;;;22.99;80.05
55077;BME280;40971;44.702;11.030;2022-10-22T09:58:43;101426.44;;;23.02;79.26
55077;BME280;40971;44.702;11.030;2022-10-22T10:01:15;101437.56;;;22.88;80.46
55077;BME280;40971;44.702;11.030;2022-10-22T10:03:41;101376.03;;;22.35;81.64
55077;BME280;40971;44.702;11.030;2022-10-22T10:06:07;101433.91;;;22.79;80.20
55077;BME280;40971;44.702;11.030;2022-10-22T10:08:32;101435.81;;;23.06;78.79
55077;BME280;40971;44.702;11.030;2022-10-22T10:11:06;101429.88;;;23.22;77.60
55077;BME280;40971;44.702;11.030;2022-10-22T10:14:05;101400.69;;;23.21;75.42
55077;BME280;40971;44.702;11.030;2022-10-22T10:16:37;101388.69;;;23.07;72.01
55077;BME280;40971;44.702;11.030;2022-10-22T10:19:20;101427.97;;;23.32;72.62
55077;BME280;40971;44.702;11.030;2022-10-22T10:27:14;101434.72;;;24.17;70.11
55077;BME280;40971;44.702;11.030;2022-10-22T10:30:21;101436.09;;;24.21;72.61
55077;BME280;40971;44.702;11.030;2022-10-22T10:33:07;101444.25;;;23.84;72.99
55077;BME280;40971;44.702;11.030;2022-10-22T10:36:03;101424.59;;;23.85;73.22
55077;BME280;40971;44.702;11.030;2022-10-22T10:38:38;101427.81;;;23.89;72.39
55077;BME280;40971;44.702;11.030;2022-10-22T10:44:04;101401.63;;;23.57;72.16
55077;BME280;40971;44.702;11.030;2022-10-22T10:54:17;101437.53;;;23.98;72.86
55077;BME280;40971;44.702;11.030;2022-10-22T10:56:57;101405.75;;;23.41;73.20
55077;BME280;40971;44.702;11.030;2022-10-22T11:07:35;101429.31;;;23.91;73.16
55077;BME280;40971;44.702;11.030;2022-10-22T11:10:25;101448.13;;;23.72;76.26
55077;BME280;40971;44.702;11.030;2022-10-22T11:12:56;101446.34;;;23.63;75.26
55077;BME280;40971;44.702;11.030;2022-10-22T11:15:29;101446.47;;;23.71;74.44
55077;BME280;40971;44.702;11.030;2022-10-22T11:18:02;101448.88;;;23.64;75.84
55077;BME280;40971;44.702;11.030;2022-10-22T11:20:52;101408.34;;;23.51;75.23
55077;BME280;40971;44.702;11.030;2022-10-22T11:23:28;101434.88;;;23.80;74.66
55077;BME280;40971;44.702;11.030;2022-10-22T11:25:56;101431.75;;;23.85;74.81
55077;BME280;40971;44.702;11.030;2022-10-22T11:28:40;101442.88;;;23.98;75.05
55077;BME280;40971;44.702;11.030;2022-10-22T11:31:13;101433.28;;;24.41;74.33
55077;BME280;40971;44.702;11.030;2022-10-22T11:36:33;101413.91;;;24.21;73.38
55077;BME280;40971;44.702;11.030;2022-10-22T11:39:01;101422.25;;;24.62;72.96
55077;BME280;40971;44.702;11.030;2022-10-22T11:41:28;101390.03;;;24.63;73.16
55077;BME280;40971;44.702;11.030;2022-10-22T11:49:40;101413.38;;;24.61;69.86
55077;BME280;40971;44.702;11.030;2022-10-22T11:54:56;101413.53;;;25.54;67.16
55077;BME280;40971;44.702;11.030;2022-10-22T11:57:36;101401.22;;;25.85;65.35
55077;BME280;40971;44.702;11.030;2022-10-22T12:00:09;101405.91;;;26.16;64.86
55077;BME280;40971;44.702;11.030;2022-10-22T12:02:41;101379.47;;;26.13;63.76
55077;BME280;40971;44.702;11.030;2022-10-22T12:05:18;101399.19;;;26.60;60.01
55077;BME280;40971;44.702;11.030;2022-10-22T12:07:52;101409.75;;;26.62;60.64
55077;BME280;40971;44.702;11.030;2022-10-22T12:10:20;101383.13;;;26.52;59.14
55077;BME280;40971;44.702;11.030;2022-10-22T12:12:56;101395.59;;;26.92;58.78
55077;BME280;40971;44.702;11.030;2022-10-22T12:15:26;101420.13;;;27.20;57.03
55077;BME280;40971;44.702;11.030;2022-10-22T12:17:59;101395.59;;;27.01;55.69
55077;BME280;40971;44.702;11.030;2022-10-22T12:20:25;101427.22;;;27.13;58.87
55077;BME280;40971;44.702;11.030;2022-10-22T12:22:52;101407.03;;;26.78;59.67
55077;BME280;40971;44.702;11.030;2022-10-22T12:25:24;101436.22;;;26.57;60.84
55077;BME280;40971;44.702;11.030;2022-10-22T12:27:52;101427.50;;;25.90;63.13
55077;BME280;40971;44.702;11.030;2022-10-22T12:30:32;101442.69;;;25.73;64.23
55077;BME280;40971;44.702;11.030;2022-10-22T12:33:06;101399.16;;;25.63;63.78
55077;BME280;40971;44.702;11.030;2022-10-22T12:35:42;101424.31;;;26.11;61.52
55077;BME280;40971;44.702;11.030;2022-10-22T12:38:17;101381.63;;;25.68;62.33
55077;BME280;40971;44.702;11.030;2022-10-22T12:40:44;101433.81;;;25.72;62.78
55077;BME280;40971;44.702;11.030;2022-10-22T12:43:13;101438.84;;;25.75;62.97
55077;BME280;40971;44.702;11.030;2022-10-22T12:45:39;101436.66;;;25.71;63.90
55077;BME280;40971;44.702;11.030;2022-10-22T12:48:14;101439.50;;;25.27;64.54
55077;BME280;40971;44.702;11.030;2022-10-22T12:51:04;101390.44;;;24.76;67.08
55077;BME280;40971;44.702;11.030;2022-10-22T12:53:34;101438.81;;;25.25;66.60
55077;BME280;40971;44.702;11.030;2022-10-22T12:56:06;101439.44;;;25.53;65.07
55077;BME280;40971;44.702;11.030;2022-10-22T12:59:02;101411.50;;;25.05;65.65
55077;BME280;40971;44.702;11.030;2022-10-22T13:01:40;101453.19;;;25.24;65.76
55077;BME280;40971;44.702;11.030;2022-10-22T13:04:20;101462.28;;;25.05;66.96
55077;BME280;40971;44.702;11.030;2022-10-22T13:06:51;101468.66;;;24.86;66.69
55077;BME280;40971;44.702;11.030;2022-10-22T13:12:08;101416.91;;;24.36;67.90
55077;BME280;40971;44.702;11.030;2022-10-22T13:14:39;101455.63;;;24.22;68.03
55077;BME280;40971;44.702;11.030;2022-10-22T13:17:19;101461.19;;;24.11;68.52
55077;BME280;40971;44.702;11.030;2022-10-22T13:22:36;101404.41;;;23.37;69.13
55077;BME280;40971;44.702;11.030;2022-10-22T13:25:24;101491.78;;;23.71;70.35
55077;BME280;40971;44.702;11.030;2022-10-22T13:27:54;101504.88;;;23.64;70.78
55077;BME280;40971;44.702;11.030;2022-10-22T13:32:53;101487.22;;;23.54;70.24
55077;BME280;40971;44.702;11.030;2022-10-22T13:35:23;101496.69;;;23.38;72.56
55077;BME280;40971;44.702;11.030;2022-10-22T13:37:49;101495.94;;;23.19;78.62
55077;BME280;40971;44.702;11.030;2022-10-22T13:40:16;101453.53;;;22.78;81.51
55077;BME280;40971;44.702;11.030;2022-10-22T13:42:42;101474.00;;;22.78;81.54
55077;BME280;40971;44.702;11.030;2022-10-22T13:45:07;101488.63;;;22.45;86.20
55077;BME280;40971;44.702;11.030;2022-10-22T13:47:33;101491.41;;;22.34;86.78
55077;BME280;40971;44.702;11.030;2022-10-22T13:50:01;101487.09;;;22.42;88.53
55077;BME280;40971;44.702;11.030;2022-10-22T13:52:41;101409.91;;;21.94;88.06
55077;BME280;40971;44.702;11.030;2022-10-22T13:55:19;101503.63;;;22.36;91.96
55077;BME280;40971;44.702;11.030;2022-10-22T13:57:46;101440.31;;;22.11;90.29
55077;BME280;40971;44.702;11.030;2022-10-22T14:00:17;101480.78;;;22.34;89.43
55077;BME280;40971;44.702;11.030;2022-10-22T14:02:46;101427.03;;;22.20;89.37
55077;BME280;40971;44.702;11.030;2022-10-22T14:05:12;101456.97;;;22.42;88.08
55077;BME280;40971;44.702;11.030;2022-10-22T14:07:38;101455.03;;;22.05;89.63
55077;BME280;40971;44.702;11.030;2022-10-22T14:10:15;101509.06;;;22.25;89.93
55077;BME280;40971;44.702;11.030;2022-10-22T14:12:41;101511.47;;;22.18;91.31